createdAt,value
2022-11-12T00:22:09.673Z,8.25
2022-11-12T00:35:00.222Z,9.25
2022-11-12T00:43:37.705Z,9.23
2022-11-12T02:00:21.692Z,4.93
2022-11-12T02:03:40.047Z,3.90
2022-11-12T02:06:35.703Z,5.40
2022-11-12T02:09:43.867Z,4.97
2022-11-12T02:13:00.352Z,8.67
2022-11-12T02:16:01.167Z,5.47
2022-11-12T02:19:06.378Z,5.93
2022-11-12T02:22:30.031Z,4.30
2022-11-12T02:25:34.924Z,6.23
2022-11-12T02:28:43.663Z,5.27
2022-11-12T02:31:46.598Z,4.60
2022-11-12T02:34:51.985Z,4.70
2022-11-12T02:38:09.116Z,4.60
2022-11-12T02:41:06.362Z,7.40
2022-11-12T02:44:10.096Z,3.80
2022-11-12T02:47:05.121Z,9.60
2022-11-12T02:50:04.530Z,7.10
2022-11-12T02:53:10.908Z,5.00
2022-11-12T02:56:15.737Z,5.87
2022-11-12T02:59:30.913Z,7.33
2022-11-12T03:02:38.934Z,6.57
2022-11-12T03:27:42.860Z,8.47
2022-11-12T03:30:44.117Z,5.37
2022-11-12T03:33:57.219Z,7.90
2022-11-12T03:36:55.784Z,7.03
2022-11-12T03:40:01.889Z,6.80
2022-11-12T03:43:09.341Z,8.90
2022-11-12T03:46:08.709Z,7.10
2022-11-12T03:49:08.123Z,6.50
2022-11-12T03:52:13.616Z,9.77
2022-11-12T03:55:08.771Z,5.67
2022-11-12T03:58:10.492Z,5.90
2022-11-12T04:01:04.661Z,8.23
2022-11-12T04:03:55.589Z,6.13
2022-11-12T04:07:14.681Z,5.00
2022-11-12T04:10:20.647Z,8.43
2022-11-12T04:13:35.736Z,9.87
2022-11-12T04:16:58.449Z,6.60
2022-11-12T04:20:17.628Z,9.60
2022-11-12T04:23:16.288Z,8.03
2022-11-12T04:26:39.693Z,10.27
2022-11-12T04:30:01.681Z,7.37
2022-11-12T04:33:13.267Z,7.23
2022-11-12T04:36:26.064Z,6.43
2022-11-12T04:39:39.748Z,7.03
2022-11-12T04:42:53.833Z,7.43
2022-11-12T04:46:17.629Z,8.07
2022-11-12T04:49:32.098Z,8.57
2022-11-12T04:52:42.299Z,6.03
2022-11-12T04:55:54.228Z,9.33
2022-11-12T04:59:06.687Z,5.43
2022-11-12T05:02:26.217Z,6.93
2022-11-12T05:05:42.450Z,14.33
2022-11-12T05:08:43.260Z,15.33
2022-11-12T05:11:53.485Z,6.10
2022-11-12T05:21:54.247Z,9.43
2022-11-12T05:24:50.150Z,9.10
2022-11-12T05:28:03.305Z,7.30
2022-11-12T05:31:03.772Z,5.73
2022-11-12T05:34:24.702Z,8.43
2022-11-12T05:37:22.263Z,7.10
2022-11-12T05:40:21.212Z,11.10
2022-11-12T05:43:32.442Z,8.10
2022-11-12T05:46:34.643Z,6.17
2022-11-12T05:49:42.313Z,6.90
2022-11-12T05:53:24.173Z,6.70
2022-11-12T05:56:25.041Z,7.43
2022-11-12T05:59:28.097Z,14.73
2022-11-12T06:02:24.231Z,7.60
2022-11-12T06:05:48.685Z,10.37
2022-11-12T06:08:49.801Z,9.20
2022-11-12T06:11:50.886Z,13.90
2022-11-12T06:14:54.089Z,5.97
2022-11-12T06:18:02.725Z,5.83
2022-11-12T06:21:32.538Z,5.93
2022-11-12T06:24:35.681Z,10.13
2022-11-12T06:27:25.124Z,9.00
2022-11-12T06:33:29.911Z,6.70
2022-11-12T06:36:57.928Z,8.17
2022-11-12T06:40:00.138Z,7.90
2022-11-12T06:43:06.065Z,10.75
2022-11-12T06:46:09.702Z,6.53
2022-11-12T06:49:23.114Z,10.87
2022-11-12T06:52:44.530Z,8.33
2022-11-12T06:55:45.003Z,10.87
2022-11-12T06:58:46.039Z,8.43
2022-11-12T07:01:55.699Z,8.93
2022-11-12T07:05:05.488Z,8.47
2022-11-12T07:08:24.391Z,6.83
2022-11-12T07:11:25.891Z,9.83
2022-11-12T07:14:28.369Z,7.87
2022-11-12T07:17:21.711Z,10.00
2022-11-12T07:20:36.760Z,10.65
2022-11-12T07:23:47.464Z,9.73
2022-11-12T07:26:58.450Z,9.90
2022-11-12T07:29:55.418Z,12.30
2022-11-12T07:32:51.778Z,9.27
2022-11-12T07:35:50.937Z,7.50
2022-11-12T07:39:04.424Z,11.00
2022-11-12T07:42:04.960Z,11.53
2022-11-12T07:45:22.333Z,13.40
2022-11-12T07:48:20.650Z,12.77
2022-11-12T07:51:29.219Z,17.63
2022-11-12T07:54:47.200Z,19.80
2022-11-12T08:01:51.741Z,24.60
2022-11-12T08:04:50.080Z,11.90
2022-11-12T08:07:52.074Z,16.70
2022-11-12T08:11:08.185Z,11.90
2022-11-12T08:14:09.517Z,22.13
2022-11-12T08:17:12.143Z,43.90
2022-11-12T08:20:04.621Z,22.80
2022-11-12T08:23:12.966Z,30.87
2022-11-12T08:26:26.616Z,13.20
2022-11-12T08:29:29.776Z,12.70
2022-11-12T08:32:36.911Z,10.13
2022-11-12T08:35:44.508Z,15.53
2022-11-12T08:38:58.131Z,10.37
2022-11-12T08:42:15.411Z,20.40
2022-11-12T08:45:32.913Z,10.50
2022-11-12T08:48:46.454Z,14.67
2022-11-12T08:51:42.484Z,10.40
2022-11-12T08:54:43.456Z,18.20
2022-11-12T08:58:03.655Z,24.53
2022-11-12T09:01:00.791Z,16.60
2022-11-12T09:04:00.541Z,17.70
2022-11-12T09:07:09.846Z,20.27
2022-11-12T09:10:19.405Z,21.20
2022-11-12T09:13:42.487Z,19.43
2022-11-12T09:16:43.904Z,24.90
2022-11-12T09:19:43.384Z,21.20
2022-11-12T09:22:45.380Z,21.27
2022-11-12T09:26:33.504Z,20.37
2022-11-12T09:30:45.580Z,49.53
2022-11-12T09:54:18.544Z,18.87
2022-11-12T09:58:11.966Z,14.47
2022-11-12T10:29:04.352Z,21.20
2022-11-12T10:50:06.324Z,15.60
2022-11-12T10:53:25.085Z,15.40
2022-11-12T10:56:37.277Z,19.20
2022-11-12T10:59:37.290Z,26.20
2022-11-12T11:02:32.010Z,21.53
2022-11-12T11:06:12.037Z,17.20
2022-11-12T11:09:40.288Z,15.97
2022-11-12T11:12:37.093Z,11.60
2022-11-12T11:15:42.063Z,16.77
2022-11-12T11:18:39.328Z,26.40
2022-11-12T11:21:47.783Z,19.00
2022-11-12T11:24:56.051Z,18.53
2022-11-12T11:28:27.124Z,32.67
2022-11-12T11:31:44.654Z,21.13
2022-11-12T11:34:49.481Z,16.00
2022-11-12T11:38:05.361Z,23.80
2022-11-12T11:41:30.074Z,17.30
2022-11-12T11:50:08.645Z,19.40
2022-11-12T11:53:30.653Z,18.90
2022-11-12T11:56:31.365Z,18.43
2022-11-12T12:00:02.997Z,18.13
2022-11-12T12:03:32.898Z,14.17
2022-11-12T12:06:40.576Z,12.93
2022-11-12T12:09:56.375Z,17.97
2022-11-12T12:13:06.586Z,12.47
2022-11-12T12:16:29.207Z,14.80
2022-11-12T12:19:42.203Z,14.30
2022-11-12T12:22:49.142Z,12.80
2022-11-12T12:25:59.929Z,17.20
2022-11-12T12:29:10.021Z,17.83
2022-11-12T12:32:09.652Z,14.30
2022-11-12T12:35:22.535Z,18.63
2022-11-12T12:38:23.011Z,11.20
2022-11-12T12:41:31.235Z,17.40
2022-11-12T12:44:55.804Z,13.13
2022-11-12T12:47:51.073Z,16.60
2022-11-12T12:50:48.859Z,19.63
2022-11-12T12:53:50.822Z,12.97
2022-11-12T12:57:11.275Z,15.30
2022-11-12T13:00:41.073Z,14.00
2022-11-12T13:04:00.277Z,10.90
2022-11-12T13:07:07.353Z,18.00
2022-11-12T13:11:05.300Z,13.23
2022-11-12T13:15:02.794Z,16.30
2022-11-12T13:18:17.588Z,9.90
2022-11-12T13:21:24.624Z,20.33
2022-11-12T13:25:04.965Z,14.83
2022-11-12T13:28:33.063Z,11.63
2022-11-12T13:31:37.327Z,17.37
2022-11-12T13:34:41.219Z,13.30
2022-11-12T13:37:39.078Z,16.00
2022-11-12T13:40:53.874Z,19.50
2022-11-12T13:44:19.498Z,18.50
2022-11-12T13:47:27.019Z,19.03
2022-11-12T13:50:23.398Z,18.70
2022-11-12T13:53:30.769Z,16.90
2022-11-12T13:56:45.438Z,16.67
2022-11-12T13:59:41.368Z,23.23
2022-11-12T14:02:43.696Z,16.80
2022-11-12T14:05:48.229Z,15.30
2022-11-12T14:09:09.048Z,17.87
2022-11-12T14:12:33.584Z,54.60
2022-11-12T14:15:43.746Z,14.67
2022-11-12T14:18:55.707Z,22.40
2022-11-12T14:22:15.484Z,21.03
2022-11-12T14:25:20.589Z,21.87
2022-11-12T14:28:37.160Z,19.27
2022-11-12T14:31:32.560Z,24.27
2022-11-12T14:34:41.343Z,33.37
2022-11-12T14:37:46.127Z,19.83
2022-11-12T14:40:51.049Z,22.40
2022-11-12T14:44:12.018Z,21.57
2022-11-12T14:47:18.313Z,24.57
2022-11-12T14:50:24.014Z,28.77
2022-11-12T14:53:32.476Z,20.47
2022-11-12T14:56:37.007Z,25.33
2022-11-12T14:59:30.788Z,28.47
2022-11-12T15:02:51.238Z,24.17
2022-11-12T15:06:11.463Z,30.97
2022-11-12T15:09:21.499Z,24.47
2022-11-12T15:12:29.191Z,23.70
2022-11-12T15:15:36.580Z,18.80
2022-11-12T15:22:30.849Z,22.23
2022-11-12T15:25:39.914Z,30.13
2022-11-12T15:28:55.378Z,25.80
2022-11-12T15:32:02.642Z,24.37
2022-11-12T15:35:06.201Z,16.53
2022-11-12T15:38:40.139Z,24.70
2022-11-12T15:42:24.728Z,30.27
2022-11-12T15:49:30.307Z,21.17
2022-11-12T15:52:55.404Z,20.17
